createdAt,value
2023-01-18T00:00:52.389Z,8.41
2023-01-18T00:03:20.105Z,8.69
2023-01-18T00:05:47.575Z,8.66
2023-01-18T00:08:18.981Z,8.84
2023-01-18T00:10:47.252Z,8.79
2023-01-18T00:13:14.809Z,8.50
2023-01-18T00:15:42.334Z,8.43
2023-01-18T00:18:10.469Z,8.57
2023-01-18T00:20:38.299Z,8.51
2023-01-18T00:23:05.914Z,8.70
2023-01-18T00:25:33.729Z,8.30
2023-01-18T00:28:01.305Z,8.38
2023-01-18T00:30:29.889Z,8.21
2023-01-18T00:32:59.449Z,8.32
2023-01-18T00:35:27.208Z,8.16
2023-01-18T00:37:54.679Z,8.15
2023-01-18T00:40:23.163Z,8.36
2023-01-18T00:43:09.420Z,8.40
2023-01-18T00:45:37.724Z,8.62
2023-01-18T00:48:05.508Z,8.45
2023-01-18T00:50:33.125Z,8.27
2023-01-18T00:53:00.887Z,8.58
2023-01-18T00:55:28.467Z,8.33
2023-01-18T00:57:55.884Z,8.38
2023-01-18T01:00:26.963Z,8.43
2023-01-18T01:02:55.044Z,8.35
2023-01-18T01:05:43.155Z,8.25
2023-01-18T01:08:17.031Z,8.61
2023-01-18T01:10:48.213Z,8.93
2023-01-18T01:13:38.409Z,8.78
2023-01-18T01:16:29.694Z,9.22
2023-01-18T01:19:16.963Z,9.27
2023-01-18T01:22:03.286Z,9.29
2023-01-18T01:24:49.763Z,9.38
2023-01-18T01:27:17.716Z,9.20
2023-01-18T01:29:45.587Z,9.14
2023-01-18T01:32:13.450Z,9.19
2023-01-18T01:34:40.890Z,9.37
2023-01-18T01:37:08.685Z,9.17
2023-01-18T01:39:36.716Z,9.07
2023-01-18T01:42:04.396Z,9.02
2023-01-18T01:44:34.591Z,8.90
2023-01-18T01:47:17.759Z,8.84
2023-01-18T01:49:48.394Z,8.37
2023-01-18T01:52:19.447Z,8.55
2023-01-18T01:54:57.484Z,8.45
2023-01-18T01:57:31.225Z,8.90
2023-01-18T02:00:10.355Z,8.64
2023-01-18T02:02:40.080Z,8.61
2023-01-18T02:05:09.793Z,8.74
2023-01-18T02:07:37.378Z,8.82
2023-01-18T02:10:06.352Z,8.98
2023-01-18T02:12:35.550Z,8.64
2023-01-18T02:15:03.625Z,8.81
2023-01-18T02:17:59.151Z,8.42
2023-01-18T02:20:44.388Z,8.30
2023-01-18T02:23:46.503Z,8.34
2023-01-18T02:26:36.167Z,8.55
2023-01-18T02:29:06.623Z,8.19
2023-01-18T02:31:40.055Z,8.12
2023-01-18T02:34:16.777Z,8.15
2023-01-18T02:37:22.763Z,8.27
2023-01-18T02:39:50.043Z,8.15
2023-01-18T02:42:38.958Z,8.57
2023-01-18T02:45:39.700Z,8.85
2023-01-18T02:48:08.503Z,8.92
2023-01-18T02:50:36.349Z,7.94
2023-01-18T02:53:03.988Z,8.38
2023-01-18T02:55:51.580Z,8.21
2023-01-18T02:58:24.963Z,8.53
2023-01-18T03:00:57.919Z,7.78
2023-01-18T03:03:26.250Z,8.20
2023-01-18T03:05:58.723Z,8.38
2023-01-18T03:08:39.032Z,8.32
2023-01-18T03:11:11.215Z,8.41
2023-01-18T03:14:03.335Z,8.20
2023-01-18T03:16:59.243Z,8.37
2023-01-18T03:20:05.531Z,8.37
2023-01-18T03:23:06.895Z,8.80
2023-01-18T03:25:36.864Z,8.57
2023-01-18T03:29:06.837Z,8.29
2023-01-18T03:32:02.478Z,8.51
2023-01-18T03:34:34.279Z,8.80
2023-01-18T03:37:04.331Z,9.09
2023-01-18T03:39:37.234Z,8.94
2023-01-18T03:42:10.048Z,8.78
2023-01-18T03:44:41.683Z,8.74
2023-01-18T03:47:09.333Z,8.71
2023-01-18T03:49:37.116Z,8.75
2023-01-18T03:52:13.360Z,8.58
2023-01-18T03:54:50.200Z,8.65
2023-01-18T03:57:24.359Z,8.79
2023-01-18T03:59:51.930Z,9.11
2023-01-18T04:02:20.786Z,9.13
2023-01-18T04:04:48.771Z,8.89
2023-01-18T04:07:16.097Z,8.86
2023-01-18T04:09:44.014Z,9.11
2023-01-18T04:12:12.215Z,9.22
2023-01-18T04:14:39.858Z,8.96
2023-01-18T04:17:07.317Z,9.42
2023-01-18T04:19:35.124Z,9.45
2023-01-18T04:22:02.676Z,9.11
2023-01-18T04:24:30.283Z,9.21
2023-01-18T04:26:58.220Z,8.91
2023-01-18T04:29:25.831Z,9.13
2023-01-18T04:31:53.301Z,8.89
2023-01-18T04:34:23.939Z,8.96
2023-01-18T04:36:51.815Z,8.88
2023-01-18T04:39:19.598Z,8.78
2023-01-18T04:41:47.509Z,8.70
2023-01-18T04:44:15.337Z,8.57
2023-01-18T04:46:43.396Z,8.74
2023-01-18T04:49:15.367Z,8.86
2023-01-18T04:51:43.986Z,8.96
2023-01-18T04:54:14.556Z,8.91
2023-01-18T04:56:42.144Z,8.88
2023-01-18T04:59:14.561Z,8.94
2023-01-18T05:01:42.451Z,9.05
2023-01-18T05:04:11.223Z,8.92
2023-01-18T05:06:38.878Z,8.87
2023-01-18T05:09:06.601Z,8.86
2023-01-18T05:11:34.152Z,8.95
2023-01-18T05:14:01.571Z,8.76
2023-01-18T05:16:29.467Z,8.55
2023-01-18T05:18:57.210Z,8.85
2023-01-18T05:21:24.736Z,8.58
2023-01-18T05:23:52.866Z,8.86
2023-01-18T05:26:22.600Z,9.01
2023-01-18T05:28:50.717Z,8.62
2023-01-18T05:31:21.222Z,8.60
2023-01-18T05:33:49.629Z,8.83
2023-01-18T05:36:17.593Z,8.92
2023-01-18T05:38:46.660Z,8.68
2023-01-18T05:41:14.241Z,8.44
2023-01-18T05:43:42.242Z,8.11
2023-01-18T05:46:09.928Z,8.40
2023-01-18T05:48:37.580Z,8.13
2023-01-18T05:51:09.389Z,8.06
2023-01-18T05:53:37.546Z,8.39
2023-01-18T05:56:06.760Z,8.32
2023-01-18T05:58:35.463Z,7.77
2023-01-18T06:01:03.429Z,7.78
2023-01-18T06:03:31.161Z,7.83
2023-01-18T06:05:59.212Z,7.77
2023-01-18T06:08:27.252Z,7.95
2023-01-18T06:10:56.199Z,7.77
2023-01-18T06:13:24.616Z,7.74
2023-01-18T06:15:54.628Z,7.71
2023-01-18T06:18:24.128Z,7.72
2023-01-18T06:20:59.096Z,7.89
2023-01-18T06:23:29.255Z,7.73
2023-01-18T06:25:56.674Z,8.06
2023-01-18T06:28:24.455Z,7.77
2023-01-18T06:30:53.255Z,7.56
2023-01-18T06:33:21.417Z,7.99
2023-01-18T06:35:49.039Z,8.34
2023-01-18T06:38:16.993Z,8.38
2023-01-18T06:40:44.412Z,7.33
2023-01-18T06:43:14.339Z,7.14
2023-01-18T06:45:42.369Z,7.47
2023-01-18T06:48:09.771Z,7.61
2023-01-18T06:50:37.258Z,7.51
2023-01-18T06:53:05.196Z,7.59
2023-01-18T06:55:34.791Z,7.77
2023-01-18T06:58:02.688Z,7.82
2023-01-18T07:00:30.521Z,7.72
2023-01-18T07:02:58.662Z,7.80
2023-01-18T07:05:26.345Z,7.98
2023-01-18T07:07:54.253Z,8.04
2023-01-18T07:10:21.784Z,7.50
2023-01-18T07:12:50.932Z,7.40
2023-01-18T07:15:22.900Z,7.19
2023-01-18T07:17:50.934Z,6.82
2023-01-18T07:20:19.927Z,7.13
2023-01-18T07:22:52.752Z,6.92
2023-01-18T07:25:20.841Z,6.78
2023-01-18T07:27:49.204Z,6.98
2023-01-18T07:30:17.843Z,7.15
2023-01-18T07:32:50.570Z,6.90
2023-01-18T07:35:22.110Z,6.97
2023-01-18T07:37:52.278Z,7.11
2023-01-18T07:40:21.341Z,7.06
2023-01-18T07:42:49.370Z,6.96
2023-01-18T07:45:17.320Z,6.91
2023-01-18T07:47:46.255Z,7.11
2023-01-18T07:50:16.810Z,7.17
2023-01-18T07:52:44.513Z,7.09
2023-01-18T07:55:12.044Z,7.11
2023-01-18T07:57:39.510Z,7.19
2023-01-18T08:00:08.190Z,7.57
2023-01-18T08:02:40.015Z,7.76
2023-01-18T08:05:10.663Z,7.51
2023-01-18T08:07:38.261Z,7.41
2023-01-18T08:10:05.858Z,7.63
2023-01-18T08:12:33.768Z,7.84
2023-01-18T08:15:01.288Z,7.51
2023-01-18T08:17:29.804Z,7.67
2023-01-18T08:19:57.558Z,7.72
2023-01-18T08:22:25.175Z,7.68
2023-01-18T08:24:52.809Z,8.06
2023-01-18T08:27:20.687Z,7.75
2023-01-18T08:29:48.431Z,7.71
2023-01-18T08:32:16.011Z,7.93
2023-01-18T08:34:43.753Z,7.86
2023-01-18T08:37:11.878Z,7.76
2023-01-18T08:39:39.394Z,7.39
2023-01-18T08:42:07.311Z,7.77
2023-01-18T08:44:34.909Z,7.77
2023-01-18T08:47:03.390Z,7.91
2023-01-18T08:49:32.788Z,8.28
2023-01-18T08:52:00.706Z,7.90
2023-01-18T08:54:28.120Z,8.11
2023-01-18T08:56:55.814Z,8.04
2023-01-18T08:59:23.945Z,8.46
2023-01-18T09:01:51.608Z,8.10
2023-01-18T09:04:19.468Z,8.17
2023-01-18T09:06:50.306Z,8.31
2023-01-18T09:09:17.658Z,8.49
2023-01-18T09:11:45.433Z,8.46
2023-01-18T09:14:12.950Z,8.68
2023-01-18T09:16:40.534Z,8.53
2023-01-18T09:19:08.476Z,8.66
2023-01-18T09:21:36.032Z,8.79
2023-01-18T09:24:03.974Z,8.36
2023-01-18T09:26:31.882Z,8.49
2023-01-18T09:28:59.365Z,8.12
2023-01-18T09:31:28.289Z,8.57
2023-01-18T09:34:12.990Z,8.44
2023-01-18T09:36:44.726Z,8.20
2023-01-18T09:39:12.493Z,8.73
2023-01-18T09:41:43.191Z,8.81
2023-01-18T09:44:17.794Z,8.61
2023-01-18T09:46:51.844Z,8.39
2023-01-18T09:49:29.073Z,8.28
2023-01-18T09:52:13.147Z,7.88
2023-01-18T09:54:51.507Z,8.51
2023-01-18T09:57:31.335Z,8.43
2023-01-18T10:00:00.172Z,8.84
2023-01-18T10:02:39.171Z,8.83
2023-01-18T10:05:23.304Z,9.08
2023-01-18T10:08:02.539Z,8.67
2023-01-18T10:10:39.962Z,8.99
2023-01-18T10:13:35.467Z,8.56
2023-01-18T10:16:08.311Z,8.46
2023-01-18T10:18:45.635Z,8.52
2023-01-18T10:21:23.146Z,8.79
2023-01-18T10:24:21.784Z,9.13
2023-01-18T10:26:53.749Z,9.25
2023-01-18T10:29:25.342Z,9.40
2023-01-18T10:32:01.843Z,9.86
2023-01-18T10:34:35.145Z,9.81
2023-01-18T10:37:14.457Z,9.82
2023-01-18T10:40:03.432Z,10.34
2023-01-18T10:42:45.433Z,10.35
2023-01-18T10:45:20.396Z,10.59
2023-01-18T10:47:49.158Z,9.65
2023-01-18T10:50:38.322Z,9.89
2023-01-18T10:53:25.280Z,10.23
2023-01-18T10:55:59.402Z,10.22
2023-01-18T10:58:30.745Z,10.17
2023-01-18T11:01:00.521Z,10.42
2023-01-18T11:03:29.042Z,10.21
2023-01-18T11:06:07.199Z,9.90
2023-01-18T11:08:35.922Z,10.20
2023-01-18T11:11:20.019Z,10.08
2023-01-18T11:13:52.863Z,10.31
2023-01-18T11:16:22.540Z,10.12
2023-01-18T11:18:59.379Z,10.25
2023-01-18T11:21:33.241Z,10.12
2023-01-18T11:24:07.727Z,10.06
2023-01-18T11:26:35.591Z,9.93
2023-01-18T11:29:06.219Z,10.39
2023-01-18T11:31:46.193Z,10.74
2023-01-18T11:34:23.371Z,10.83
2023-01-18T11:36:51.282Z,10.66
2023-01-18T11:39:29.120Z,10.90
2023-01-18T11:42:32.469Z,10.39
2023-01-18T11:45:16.255Z,10.72
2023-01-18T11:47:51.681Z,10.96
2023-01-18T11:50:47.248Z,11.15
2023-01-18T11:53:33.449Z,10.86
2023-01-18T11:56:07.551Z,10.78
2023-01-18T11:58:36.005Z,10.82
2023-01-18T12:01:22.761Z,10.09
2023-01-18T12:03:58.821Z,10.29
2023-01-18T12:06:36.256Z,10.68
2023-01-18T12:09:14.487Z,10.43
2023-01-18T12:11:58.025Z,10.68
2023-01-18T12:15:11.230Z,10.82
2023-01-18T12:18:27.531Z,10.83
2023-01-18T12:21:21.061Z,10.96
2023-01-18T12:23:54.825Z,10.60
2023-01-18T12:26:22.654Z,10.58
2023-01-18T12:28:57.747Z,10.81
2023-01-18T12:31:44.196Z,10.70
2023-01-18T12:34:25.077Z,11.09
2023-01-18T12:36:55.933Z,11.29
2023-01-18T12:39:55.653Z,11.01
2023-01-18T12:42:28.585Z,10.52
2023-01-18T12:45:07.717Z,10.90
2023-01-18T12:47:47.870Z,11.14
2023-01-18T12:50:27.771Z,11.31
2023-01-18T12:53:01.118Z,11.72
2023-01-18T12:55:31.843Z,11.41
2023-01-18T12:58:00.641Z,11.66
2023-01-18T13:00:38.332Z,11.81
2023-01-18T13:03:13.835Z,11.64
2023-01-18T13:05:52.613Z,11.29
2023-01-18T13:08:50.172Z,10.97
2023-01-18T13:11:36.366Z,10.86
2023-01-18T13:14:25.685Z,11.22
2023-01-18T13:17:19.344Z,11.16
2023-01-18T13:19:55.030Z,10.99
2023-01-18T13:22:44.384Z,10.94
2023-01-18T13:25:29.360Z,11.06
2023-01-18T13:28:01.074Z,10.86
2023-01-18T13:30:32.611Z,10.36
2023-01-18T13:33:00.730Z,10.53
2023-01-18T13:35:33.495Z,10.81
2023-01-18T13:38:12.116Z,10.70
2023-01-18T13:40:51.904Z,10.33
2023-01-18T13:43:38.154Z,10.21
2023-01-18T13:46:08.586Z,10.48
2023-01-18T13:48:54.500Z,10.08
2023-01-18T13:51:40.690Z,10.43
2023-01-18T13:54:29.873Z,10.44
2023-01-18T13:57:04.557Z,10.49
2023-01-18T13:59:37.505Z,10.17
2023-01-18T14:02:17.683Z,10.56
2023-01-18T14:04:45.615Z,10.68
2023-01-18T14:07:22.911Z,10.60
2023-01-18T14:09:51.426Z,10.40
2023-01-18T14:12:48.566Z,10.59
2023-01-18T14:15:41.965Z,10.24
2023-01-18T14:18:15.469Z,10.27
2023-01-18T14:20:52.215Z,10.06
2023-01-18T14:23:48.675Z,10.03
2023-01-18T14:26:17.416Z,10.05
2023-01-18T14:28:53.044Z,10.24
2023-01-18T14:31:28.100Z,10.30
2023-01-18T14:33:55.612Z,10.50
2023-01-18T14:36:26.502Z,10.44
2023-01-18T14:39:13.461Z,10.59
2023-01-18T14:41:43.682Z,10.70
2023-01-18T14:44:23.329Z,10.60
2023-01-18T14:46:56.696Z,10.76
2023-01-18T14:49:35.155Z,10.77
2023-01-18T14:52:13.421Z,10.92
2023-01-18T14:54:53.764Z,11.04
2023-01-18T14:57:36.795Z,10.89
2023-01-18T15:00:16.801Z,10.99
2023-01-18T15:02:46.652Z,11.10
2023-01-18T15:05:22.941Z,11.02
2023-01-18T15:07:56.268Z,11.15
2023-01-18T15:10:37.848Z,11.24
2023-01-18T15:13:16.506Z,11.08
2023-01-18T15:15:44.672Z,11.00
2023-01-18T15:18:20.560Z,10.93
2023-01-18T15:21:04.591Z,10.91
2023-01-18T15:23:41.676Z,10.87
2023-01-18T15:26:13.317Z,10.68
2023-01-18T15:28:46.314Z,10.58
2023-01-18T15:31:23.627Z,10.73
2023-01-18T15:33:54.452Z,10.58
2023-01-18T15:36:23.277Z,10.65
2023-01-18T15:38:54.037Z,10.39
2023-01-18T15:41:21.912Z,10.35
2023-01-18T15:43:49.469Z,10.05
2023-01-18T15:46:17.652Z,9.98
2023-01-18T15:48:53.817Z,9.90
2023-01-18T15:51:22.745Z,10.00
2023-01-18T15:53:56.309Z,10.42
2023-01-18T15:56:26.841Z,10.28
2023-01-18T15:58:56.177Z,10.43
2023-01-18T16:01:28.211Z,10.25
2023-01-18T16:04:22.228Z,10.22
2023-01-18T16:06:49.873Z,9.74
2023-01-18T16:09:20.897Z,9.59
2023-01-18T16:11:54.589Z,9.58
2023-01-18T16:14:28.998Z,9.51
2023-01-18T16:17:06.056Z,9.58
2023-01-18T16:19:41.825Z,9.61
2023-01-18T16:22:37.241Z,9.67
2023-01-18T16:25:16.962Z,9.64
2023-01-18T16:27:53.262Z,9.68
2023-01-18T16:30:35.297Z,9.63
2023-01-18T16:33:10.084Z,9.73
2023-01-18T16:35:39.945Z,9.73
2023-01-18T16:38:15.683Z,9.83
2023-01-18T16:40:45.121Z,9.77
2023-01-18T16:43:18.963Z,9.80
2023-01-18T16:45:49.457Z,9.72
2023-01-18T16:48:28.101Z,10.07
2023-01-18T16:50:56.648Z,9.85
2023-01-18T16:53:24.155Z,9.85
2023-01-18T16:55:51.815Z,9.81
2023-01-18T16:58:21.240Z,9.77
2023-01-18T17:00:51.551Z,9.77
2023-01-18T17:03:19.447Z,9.72
2023-01-18T17:05:47.039Z,9.69
2023-01-18T17:08:15.778Z,9.60
2023-01-18T17:10:46.428Z,9.49
2023-01-18T17:13:13.849Z,9.68
2023-01-18T17:15:45.530Z,9.79
2023-01-18T17:18:15.540Z,9.74
2023-01-18T17:20:43.610Z,9.73
2023-01-18T17:23:11.427Z,9.58
2023-01-18T17:25:39.302Z,9.51
2023-01-18T17:28:07.022Z,9.43
2023-01-18T17:30:34.993Z,9.44
2023-01-18T17:33:03.179Z,9.63
2023-01-18T17:35:32.095Z,9.68
2023-01-18T17:38:06.176Z,9.73
2023-01-18T17:40:43.826Z,9.81
2023-01-18T17:43:28.578Z,9.74
2023-01-18T17:46:03.214Z,9.70
2023-01-18T17:48:30.648Z,9.75
2023-01-18T17:50:58.735Z,9.74
2023-01-18T17:53:27.098Z,9.73
2023-01-18T17:55:55.203Z,9.81
2023-01-18T17:58:22.817Z,9.68
2023-01-18T18:00:51.194Z,9.63
2023-01-18T18:03:20.208Z,9.73
2023-01-18T18:05:48.220Z,9.78
2023-01-18T18:08:18.059Z,9.73
2023-01-18T18:10:45.929Z,9.71
2023-01-18T18:13:13.462Z,9.74
2023-01-18T18:15:45.983Z,9.65
2023-01-18T18:18:22.747Z,9.61
2023-01-18T18:21:02.488Z,9.81
2023-01-18T18:23:30.910Z,9.70
2023-01-18T18:25:59.335Z,9.65
2023-01-18T18:28:29.531Z,9.69
2023-01-18T18:30:58.441Z,9.72
2023-01-18T18:33:26.947Z,9.73
2023-01-18T18:35:54.644Z,9.78
2023-01-18T18:38:23.159Z,9.87
2023-01-18T18:40:51.465Z,9.78
2023-01-18T18:43:19.168Z,10.03
2023-01-18T18:45:47.604Z,9.66
2023-01-18T18:48:15.106Z,9.88
2023-01-18T18:50:42.692Z,10.05
2023-01-18T18:53:10.458Z,10.21
2023-01-18T18:55:38.093Z,10.20
2023-01-18T18:58:07.073Z,10.16
2023-01-18T19:00:35.184Z,9.92
2023-01-18T19:03:04.696Z,9.91
2023-01-18T19:05:33.730Z,9.74
2023-01-18T19:08:01.897Z,9.51
2023-01-18T19:10:30.387Z,9.46
2023-01-18T19:12:58.709Z,9.64
2023-01-18T19:15:27.028Z,9.62
2023-01-18T19:18:01.272Z,9.73
2023-01-18T19:20:29.084Z,9.33
2023-01-18T19:22:56.905Z,9.10
2023-01-18T19:25:27.313Z,9.20
2023-01-18T19:27:56.426Z,9.43
2023-01-18T19:30:29.509Z,9.48
2023-01-18T19:32:59.861Z,9.42
2023-01-18T19:35:27.366Z,9.14
2023-01-18T19:37:55.333Z,9.41
2023-01-18T19:40:24.688Z,9.15
2023-01-18T19:42:55.974Z,9.38
2023-01-18T19:45:28.359Z,9.55
2023-01-18T19:47:57.769Z,9.28
2023-01-18T19:50:26.844Z,9.32
2023-01-18T19:52:54.445Z,9.16
2023-01-18T19:55:22.922Z,9.35
2023-01-18T19:57:52.378Z,9.42
2023-01-18T20:00:20.411Z,9.47
2023-01-18T20:02:48.689Z,9.46
2023-01-18T20:05:17.321Z,9.27
2023-01-18T20:07:45.079Z,9.08
2023-01-18T20:10:13.044Z,9.12
2023-01-18T20:12:42.974Z,8.98
2023-01-18T20:15:10.600Z,9.08
2023-01-18T20:17:38.396Z,8.97
2023-01-18T20:20:06.514Z,9.18
2023-01-18T20:22:33.955Z,9.42
2023-01-18T20:25:01.772Z,9.36
2023-01-18T20:27:29.502Z,9.03
2023-01-18T20:29:58.326Z,8.93
2023-01-18T20:32:26.400Z,8.84
2023-01-18T20:34:53.978Z,8.44
2023-01-18T20:37:21.481Z,8.50
2023-01-18T20:39:50.409Z,8.17
2023-01-18T20:42:18.115Z,7.92
2023-01-18T20:44:49.259Z,8.00
2023-01-18T20:47:17.200Z,8.24
2023-01-18T20:49:45.458Z,8.52
2023-01-18T20:52:13.072Z,8.65
2023-01-18T20:54:40.880Z,8.72
2023-01-18T20:57:08.622Z,8.56
2023-01-18T20:59:36.136Z,8.57
2023-01-18T21:02:05.219Z,8.96
2023-01-18T21:04:32.884Z,8.65
2023-01-18T21:07:00.536Z,8.66
2023-01-18T21:09:28.288Z,8.56
2023-01-18T21:11:55.915Z,8.91
2023-01-18T21:14:23.670Z,8.73
2023-01-18T21:16:51.451Z,8.65
2023-01-18T21:19:19.125Z,8.59
2023-01-18T21:21:46.697Z,8.58
2023-01-18T21:24:14.523Z,8.41
2023-01-18T21:26:42.193Z,8.18
2023-01-18T21:29:09.713Z,8.61
2023-01-18T21:31:39.986Z,8.79
2023-01-18T21:34:07.776Z,8.82
2023-01-18T21:36:35.716Z,8.68
2023-01-18T21:39:04.622Z,8.49
2023-01-18T21:41:50.574Z,8.30
2023-01-18T21:44:37.068Z,8.40
2023-01-18T21:47:04.593Z,8.44
2023-01-18T21:50:16.613Z,8.46
2023-01-18T21:52:57.180Z,8.27
2023-01-18T21:55:25.329Z,8.64
2023-01-18T21:58:11.359Z,8.84
2023-01-18T22:00:39.932Z,8.69
2023-01-18T22:03:09.810Z,9.00
2023-01-18T22:05:39.889Z,9.00
2023-01-18T22:08:09.910Z,8.80
2023-01-18T22:10:37.518Z,8.81
2023-01-18T22:13:05.121Z,8.81
2023-01-18T22:15:32.805Z,8.98
2023-01-18T22:18:00.791Z,8.19
2023-01-18T22:20:30.326Z,8.76
2023-01-18T22:22:58.626Z,8.41
2023-01-18T22:25:26.070Z,8.16
2023-01-18T22:27:53.446Z,8.33
2023-01-18T22:30:22.892Z,8.59
2023-01-18T22:32:50.299Z,8.43
2023-01-18T22:35:17.848Z,8.08
2023-01-18T22:37:45.599Z,8.13
2023-01-18T22:40:13.112Z,7.72
2023-01-18T22:42:40.749Z,8.21
2023-01-18T22:45:08.731Z,8.01
2023-01-18T22:47:36.240Z,7.91
2023-01-18T22:50:04.015Z,8.02
2023-01-18T22:52:31.794Z,7.88
2023-01-18T22:54:59.285Z,7.90
2023-01-18T22:57:26.666Z,7.98
2023-01-18T22:59:54.572Z,7.76
2023-01-18T23:02:21.995Z,7.48
2023-01-18T23:04:49.458Z,7.80
2023-01-18T23:07:17.562Z,7.78
2023-01-18T23:09:45.141Z,7.89
2023-01-18T23:12:12.696Z,8.40
2023-01-18T23:14:59.147Z,8.60
2023-01-18T23:17:38.850Z,8.14
2023-01-18T23:20:10.293Z,8.25
2023-01-18T23:22:38.108Z,8.32
2023-01-18T23:25:06.200Z,7.83
2023-01-18T23:27:33.712Z,7.59
2023-01-18T23:30:02.580Z,7.70
2023-01-18T23:32:30.888Z,8.10
2023-01-18T23:34:59.783Z,7.51
2023-01-18T23:37:27.663Z,7.75
2023-01-18T23:40:14.161Z,7.87
2023-01-18T23:43:01.153Z,8.34
2023-01-18T23:45:47.665Z,8.30
2023-01-18T23:48:37.874Z,8.13
2023-01-18T23:51:26.465Z,7.95
2023-01-18T23:54:12.810Z,8.15
2023-01-18T23:56:40.518Z,7.90
2023-01-18T23:59:08.837Z,8.20
